createdAt,value
2022-11-04T00:00:30.217Z,341.27
2022-11-04T00:03:00.039Z,283.40
2022-11-04T00:05:29.347Z,265.35
2022-11-04T00:08:16.548Z,262.23
2022-11-04T00:11:08.938Z,254.35
2022-11-04T00:13:38.284Z,315.98
2022-11-04T00:16:24.974Z,268.63
2022-11-04T00:18:57.142Z,302.23
2022-11-04T00:21:43.006Z,290.55
2022-11-04T00:24:31.987Z,282.05
2022-11-04T00:27:19.285Z,280.13
2022-11-04T00:29:48.618Z,301.60
2022-11-04T00:32:36.550Z,280.35
2022-11-04T00:35:07.502Z,300.25
2022-11-04T00:37:39.791Z,291.67
2022-11-04T00:40:12.622Z,292.42
2022-11-04T00:42:45.939Z,278.25
2022-11-04T00:45:15.429Z,297.27
2022-11-04T00:47:46.006Z,269.30
2022-11-04T00:50:15.608Z,274.63
2022-11-04T00:52:46.163Z,253.95
2022-11-04T00:55:15.613Z,290.75
2022-11-04T00:57:46.142Z,251.32
2022-11-04T01:00:16.201Z,270.65
2022-11-04T01:02:46.880Z,243.65
2022-11-04T01:05:17.714Z,246.70
2022-11-04T01:07:45.957Z,285.77
2022-11-04T01:10:15.277Z,256.13
2022-11-04T01:12:44.611Z,252.93
2022-11-04T01:15:13.833Z,234.40
2022-11-04T01:17:41.990Z,253.88
2022-11-04T01:20:13.278Z,132.68
2022-11-04T01:22:42.886Z,230.80
2022-11-04T01:25:12.241Z,96.68
2022-11-04T01:27:42.773Z,181.48
2022-11-04T01:30:13.657Z,282.73
2022-11-04T01:32:43.127Z,290.95
2022-11-04T01:35:12.494Z,243.65
2022-11-04T01:37:43.929Z,94.95
2022-11-04T01:40:12.769Z,163.38
2022-11-04T01:42:40.970Z,194.02
2022-11-04T01:45:15.310Z,138.77
2022-11-04T01:47:49.968Z,99.05
2022-11-04T01:50:23.585Z,172.90
2022-11-04T01:52:59.068Z,77.20
2022-11-04T01:55:32.806Z,228.85
2022-11-04T01:58:07.315Z,196.32
2022-11-04T02:00:39.419Z,100.40
2022-11-04T02:05:42.509Z,146.27
2022-11-04T02:08:14.986Z,269.30
2022-11-04T02:10:49.936Z,296.50
2022-11-04T02:13:19.818Z,268.60
2022-11-04T02:16:02.997Z,250.32
2022-11-04T02:18:56.768Z,210.18
2022-11-04T02:22:24.373Z,85.35
2022-11-04T02:25:18.887Z,213.60
2022-11-04T02:28:19.614Z,92.50
2022-11-04T02:30:59.280Z,186.68
2022-11-04T02:33:36.958Z,90.40
2022-11-04T02:36:13.785Z,107.45
2022-11-04T02:38:54.347Z,94.20
2022-11-04T02:41:40.191Z,91.78
2022-11-04T02:44:18.996Z,118.80
2022-11-04T02:46:57.284Z,98.90
2022-11-04T02:49:33.709Z,92.28
2022-11-04T02:52:07.333Z,88.75
2022-11-04T02:54:43.908Z,89.93
2022-11-04T02:57:27.472Z,97.40
2022-11-04T03:00:01.465Z,94.35
2022-11-04T03:02:38.959Z,96.78
2022-11-04T03:05:11.857Z,92.95
2022-11-04T03:07:43.842Z,95.85
2022-11-04T03:10:20.048Z,92.80
2022-11-04T03:12:57.075Z,96.18
2022-11-04T03:15:30.501Z,95.75
2022-11-04T03:18:11.957Z,95.28
2022-11-04T03:20:43.865Z,95.47
2022-11-04T03:23:14.057Z,93.68
2022-11-04T03:25:47.018Z,98.55
2022-11-04T03:28:29.566Z,92.47
2022-11-04T03:31:03.185Z,93.97
2022-11-04T03:33:42.454Z,132.23
2022-11-04T03:36:11.102Z,93.57
2022-11-04T03:38:41.107Z,96.60
2022-11-04T03:41:17.119Z,92.43
2022-11-04T03:43:47.796Z,93.25
2022-11-04T03:46:17.222Z,92.38
2022-11-04T03:48:47.423Z,91.88
2022-11-04T03:51:16.829Z,91.95
2022-11-04T03:53:46.656Z,97.07
2022-11-04T03:56:57.310Z,91.97
2022-11-04T03:59:52.887Z,88.60
2022-11-04T04:02:28.391Z,95.72
2022-11-04T04:05:03.381Z,94.10
2022-11-04T04:07:39.436Z,95.45
2022-11-04T04:10:29.697Z,94.45
2022-11-04T04:13:03.740Z,92.68
2022-11-04T04:15:44.147Z,94.38
2022-11-04T04:18:17.769Z,93.78
2022-11-04T04:20:50.483Z,201.13
2022-11-04T04:23:42.098Z,258.13
2022-11-04T04:26:31.869Z,267.58
2022-11-04T04:29:04.441Z,234.00
2022-11-04T04:31:53.862Z,256.90
2022-11-04T04:34:27.794Z,262.48
2022-11-04T04:37:04.505Z,263.83
2022-11-04T04:39:59.096Z,101.72
2022-11-04T04:42:44.885Z,190.38
2022-11-04T04:45:26.032Z,250.90
2022-11-04T04:47:55.647Z,289.45
2022-11-04T04:50:29.671Z,275.52
2022-11-04T04:53:02.333Z,277.63
2022-11-04T04:55:34.334Z,259.50
2022-11-04T04:58:08.082Z,196.07
2022-11-04T05:00:37.472Z,249.77
2022-11-04T05:03:07.416Z,255.90
2022-11-04T05:05:35.753Z,49.38
2022-11-04T05:08:11.739Z,250.77
2022-11-04T05:10:41.384Z,272.60
2022-11-04T05:13:31.430Z,260.60
2022-11-04T05:16:05.809Z,274.92
2022-11-04T05:18:35.395Z,57.03
2022-11-04T05:21:06.494Z,235.82
2022-11-04T05:23:38.480Z,148.85
2022-11-04T05:26:07.928Z,217.43
2022-11-04T05:28:37.461Z,217.73
2022-11-04T05:31:07.774Z,199.85
2022-11-04T05:33:37.293Z,170.50
2022-11-04T05:36:09.681Z,99.20
2022-11-04T05:38:42.430Z,191.65
2022-11-04T05:41:25.812Z,183.27
2022-11-04T05:43:58.527Z,188.38
2022-11-04T05:46:28.644Z,196.95
2022-11-04T05:48:57.454Z,99.10
2022-11-04T05:51:28.959Z,170.60
2022-11-04T05:53:58.516Z,98.35
2022-11-04T05:56:27.046Z,116.88
2022-11-04T05:58:56.730Z,277.40
2022-11-04T06:01:31.415Z,247.57
2022-11-04T06:04:04.090Z,249.98
2022-11-04T06:06:35.432Z,258.20
2022-11-04T06:09:06.483Z,256.30
2022-11-04T06:11:35.813Z,170.77
2022-11-04T06:14:05.438Z,214.75
2022-11-04T06:16:35.855Z,216.15
2022-11-04T06:19:08.547Z,166.65
2022-11-04T06:21:41.411Z,156.57
2022-11-04T06:24:12.098Z,88.95
2022-11-04T06:26:40.361Z,154.93
2022-11-04T06:29:11.696Z,91.38
2022-11-04T06:31:41.093Z,98.13
2022-11-04T06:34:10.485Z,104.25
2022-11-04T06:36:38.655Z,120.70
2022-11-04T06:39:09.461Z,99.72
2022-11-04T06:41:39.053Z,90.07
2022-11-04T06:44:07.214Z,88.50
2022-11-04T06:46:40.574Z,90.60
2022-11-04T06:49:14.437Z,91.28
2022-11-04T06:51:44.433Z,91.22
2022-11-04T06:54:15.328Z,92.30
2022-11-04T06:56:47.264Z,93.13
2022-11-04T06:59:19.379Z,92.22
2022-11-04T07:04:18.961Z,91.20
2022-11-04T07:06:47.149Z,91.97
2022-11-04T07:09:17.532Z,92.95
2022-11-04T07:11:48.638Z,91.47
2022-11-04T07:14:19.226Z,93.03
2022-11-04T07:16:51.343Z,93.18
2022-11-04T07:21:51.490Z,90.45
2022-11-04T07:24:21.083Z,91.93
2022-11-04T07:26:50.753Z,94.03
2022-11-04T07:29:20.337Z,91.35
2022-11-04T07:31:49.729Z,92.20
2022-11-04T07:34:18.382Z,90.72
2022-11-04T07:36:47.776Z,93.53
2022-11-04T07:39:18.454Z,91.38
2022-11-04T07:41:47.854Z,94.55
2022-11-04T07:44:18.770Z,92.68
2022-11-04T07:49:18.094Z,96.93
2022-11-04T07:51:48.616Z,99.70
2022-11-04T07:54:18.048Z,95.38
2022-11-04T07:56:46.147Z,95.60
2022-11-04T07:59:18.092Z,92.47
2022-11-04T08:01:46.773Z,96.20
2022-11-04T08:04:17.478Z,93.88
2022-11-04T08:06:46.993Z,89.72
2022-11-04T08:09:15.131Z,89.47
2022-11-04T08:11:43.336Z,97.22
2022-11-04T08:14:12.738Z,97.20
2022-11-04T08:16:42.401Z,99.53
2022-11-04T08:19:12.174Z,94.80
2022-11-04T08:21:40.340Z,91.95
2022-11-04T08:24:10.987Z,91.47
2022-11-04T08:26:40.455Z,143.23
2022-11-04T08:29:09.784Z,98.25
2022-11-04T08:31:39.864Z,100.80
2022-11-04T08:34:12.905Z,100.53
2022-11-04T08:36:42.990Z,100.10
2022-11-04T08:39:13.498Z,98.43
2022-11-04T08:41:45.492Z,102.63
2022-11-04T08:44:16.018Z,100.50
2022-11-04T08:46:46.711Z,96.40
2022-11-04T08:49:21.352Z,98.07
2022-11-04T08:51:56.614Z,110.00
2022-11-04T08:54:25.391Z,96.18
2022-11-04T08:56:55.528Z,132.27
2022-11-04T08:59:26.017Z,122.22
2022-11-04T09:01:54.296Z,206.02
2022-11-04T09:04:25.046Z,96.32
2022-11-04T09:06:56.198Z,193.40
2022-11-04T09:09:27.076Z,213.20
2022-11-04T09:11:55.302Z,104.40
2022-11-04T09:14:26.146Z,300.08
2022-11-04T09:16:57.769Z,307.00
2022-11-04T09:19:29.945Z,258.67
2022-11-04T09:21:59.357Z,299.40
2022-11-04T09:24:28.884Z,153.60
2022-11-04T09:26:57.022Z,280.50
2022-11-04T09:29:27.997Z,248.38
2022-11-04T09:31:57.431Z,239.13
2022-11-04T09:34:28.498Z,281.98
2022-11-04T09:36:58.632Z,222.68
2022-11-04T09:39:29.658Z,60.75
2022-11-04T09:42:15.126Z,198.15
2022-11-04T09:45:19.903Z,186.52
2022-11-04T09:47:45.274Z,214.40
2022-11-04T09:50:25.875Z,57.85
2022-11-04T09:53:02.708Z,89.65
2022-11-04T09:55:42.889Z,289.67
2022-11-04T09:58:14.996Z,267.95
2022-11-04T10:00:52.223Z,267.52
2022-11-04T10:03:41.019Z,275.10
2022-11-04T10:06:39.010Z,249.65
2022-11-04T10:09:30.016Z,134.45
2022-11-04T10:12:12.750Z,95.28
2022-11-04T10:15:33.163Z,97.97
2022-11-04T10:18:18.125Z,94.72
2022-11-04T10:20:58.081Z,93.95
2022-11-04T10:23:35.304Z,91.53
2022-11-04T10:26:16.101Z,97.00
2022-11-04T10:28:53.643Z,97.43
2022-11-04T10:31:23.327Z,64.30
2022-11-04T10:33:56.258Z,98.82
2022-11-04T10:36:27.156Z,233.07
2022-11-04T10:38:58.820Z,141.63
2022-11-04T10:41:35.568Z,245.45
2022-11-04T10:44:09.479Z,96.20
2022-11-04T10:46:55.238Z,95.53
2022-11-04T10:52:52.179Z,144.43
2022-11-04T10:55:37.983Z,94.22
2022-11-04T10:58:18.447Z,201.13
2022-11-04T11:00:48.024Z,276.58
2022-11-04T11:03:31.220Z,98.80
2022-11-04T11:06:23.331Z,105.32
2022-11-04T11:08:53.994Z,291.88
2022-11-04T11:11:45.456Z,242.18
2022-11-04T11:14:35.098Z,304.83
2022-11-04T11:17:26.514Z,81.13
2022-11-04T11:20:05.222Z,332.58
2022-11-04T11:22:38.823Z,269.75
2022-11-04T11:25:24.157Z,298.60
2022-11-04T11:27:58.878Z,279.88
2022-11-04T11:30:33.266Z,99.32
2022-11-04T11:33:09.248Z,99.45
2022-11-04T11:35:44.628Z,98.32
2022-11-04T11:38:24.738Z,154.95
2022-11-04T11:41:23.344Z,303.75
2022-11-04T11:43:54.144Z,295.20
2022-11-04T11:46:25.504Z,296.90
2022-11-04T11:49:00.954Z,296.85
2022-11-04T11:51:33.315Z,70.57
2022-11-04T11:54:19.299Z,272.48
2022-11-04T12:02:50.513Z,103.25
2022-11-04T12:11:28.539Z,104.93
2022-11-04T12:14:04.966Z,101.28
2022-11-04T12:16:44.818Z,104.07
2022-11-04T12:19:41.293Z,183.85
2022-11-04T12:22:21.415Z,67.40
2022-11-04T12:25:05.041Z,170.60
2022-11-04T12:27:43.016Z,119.90
2022-11-04T12:30:17.531Z,368.55
2022-11-04T12:33:10.184Z,353.50
2022-11-04T12:35:54.003Z,97.15
2022-11-04T12:38:53.222Z,259.80
2022-11-04T12:41:58.978Z,359.95
2022-11-04T12:44:34.501Z,345.27
2022-11-04T12:47:24.025Z,109.63
2022-11-04T12:50:08.674Z,109.72
2022-11-04T12:53:02.282Z,109.82
2022-11-04T12:55:44.527Z,105.35
2022-11-04T12:58:30.876Z,102.00
2022-11-04T13:01:10.975Z,107.30
2022-11-04T13:03:51.977Z,108.57
2022-11-04T13:06:30.220Z,106.68
2022-11-04T13:09:06.490Z,105.93
2022-11-04T13:11:43.329Z,109.53
2022-11-04T13:14:20.998Z,105.30
2022-11-04T13:16:52.703Z,106.63
2022-11-04T13:19:28.984Z,107.35
2022-11-04T13:22:06.792Z,107.60
2022-11-04T13:24:39.789Z,108.55
2022-11-04T13:27:20.484Z,108.47
2022-11-04T13:29:52.749Z,109.32
2022-11-04T13:32:31.549Z,103.20
2022-11-04T13:35:08.212Z,106.82
2022-11-04T13:37:45.745Z,106.78
2022-11-04T13:40:21.076Z,104.93
2022-11-04T13:43:42.902Z,103.43
2022-11-04T13:46:26.303Z,102.38
2022-11-04T13:49:02.021Z,103.65
2022-11-04T13:51:42.018Z,103.38
2022-11-04T13:54:30.571Z,102.68
2022-11-04T13:57:16.307Z,110.35
2022-11-04T14:00:20.687Z,98.45
2022-11-04T14:02:49.784Z,346.98
2022-11-04T14:06:01.601Z,69.07
2022-11-04T14:08:30.026Z,351.80
2022-11-04T14:11:10.271Z,375.98
2022-11-04T14:14:20.307Z,351.88
2022-11-04T14:16:49.647Z,345.58
2022-11-04T14:19:59.831Z,370.38
2022-11-04T14:22:47.994Z,350.20
2022-11-04T14:25:33.742Z,321.05
2022-11-04T14:28:25.324Z,233.70
2022-11-04T14:30:56.380Z,363.25
2022-11-04T14:33:42.529Z,106.57
2022-11-04T14:36:34.587Z,109.07
2022-11-04T14:39:21.739Z,104.78
2022-11-04T14:42:13.276Z,106.85
2022-11-04T14:44:50.022Z,107.95
2022-11-04T14:47:21.525Z,103.97
2022-11-04T14:49:55.167Z,98.80
2022-11-04T14:52:28.866Z,101.18
2022-11-04T14:55:06.301Z,55.90
2022-11-04T14:57:42.494Z,105.90
2022-11-04T15:00:37.063Z,104.05
2022-11-04T15:03:41.139Z,105.85
2022-11-04T15:06:08.148Z,105.15
2022-11-04T15:08:43.898Z,106.28
2022-11-04T15:11:18.341Z,104.13
2022-11-04T15:13:48.644Z,108.97
2022-11-04T15:16:23.207Z,106.15
2022-11-04T15:18:54.502Z,113.55
2022-11-04T15:21:25.512Z,107.63
2022-11-04T15:23:56.728Z,108.35
2022-11-04T15:26:30.567Z,103.55
2022-11-04T15:29:03.053Z,102.93
2022-11-04T15:31:35.679Z,104.07
2022-11-04T15:34:13.287Z,104.78
2022-11-04T15:36:45.132Z,107.00
2022-11-04T15:39:17.801Z,103.68
2022-11-04T15:42:06.732Z,105.40
2022-11-04T15:44:39.766Z,107.93
2022-11-04T15:47:26.903Z,109.60
2022-11-04T15:50:16.967Z,98.30
2022-11-04T15:52:54.217Z,99.15
2022-11-04T15:55:26.856Z,93.82
2022-11-04T15:57:57.449Z,133.68
2022-11-04T16:00:30.008Z,92.30
2022-11-04T16:03:01.902Z,100.55
2022-11-04T16:05:33.644Z,94.15
2022-11-04T16:08:21.127Z,93.82
2022-11-04T16:10:52.521Z,93.45
2022-11-04T16:13:25.755Z,94.65
2022-11-04T16:18:43.172Z,96.63
2022-11-04T16:21:23.082Z,93.15
2022-11-04T16:23:56.507Z,96.25
2022-11-04T16:26:31.004Z,95.50
2022-11-04T16:29:01.881Z,93.55
2022-11-04T16:34:10.891Z,95.43
2022-11-04T16:36:41.536Z,95.72
2022-11-04T16:39:10.094Z,94.03
2022-11-04T16:41:41.944Z,102.90
2022-11-04T16:44:23.375Z,98.45
2022-11-04T16:46:54.268Z,91.73
2022-11-04T16:49:25.490Z,94.55
2022-11-04T16:51:58.415Z,89.67
2022-11-04T16:54:27.959Z,88.38
2022-11-04T16:56:59.579Z,92.85
2022-11-04T16:59:27.931Z,88.75
2022-11-04T17:01:56.645Z,85.63
2022-11-04T17:04:26.741Z,88.38
2022-11-04T17:06:56.098Z,87.40
2022-11-04T17:09:25.977Z,89.75
2022-11-04T17:11:54.142Z,90.20
2022-11-04T17:14:23.573Z,89.20
2022-11-04T17:16:51.846Z,89.45
2022-11-04T17:19:21.258Z,90.65
2022-11-04T17:21:52.376Z,88.40
2022-11-04T17:24:21.725Z,88.10
2022-11-04T17:26:51.243Z,88.03
2022-11-04T17:29:20.560Z,88.97
2022-11-04T17:31:49.936Z,88.60
2022-11-04T17:34:19.481Z,90.85
2022-11-04T17:36:49.360Z,96.35
2022-11-04T17:39:18.857Z,88.38
2022-11-04T17:42:04.642Z,89.78
2022-11-04T17:44:33.417Z,88.93
2022-11-04T17:47:01.915Z,88.03
2022-11-04T17:49:30.711Z,88.50
2022-11-04T17:52:02.449Z,88.47
2022-11-04T17:54:32.707Z,88.13
2022-11-04T17:57:03.431Z,87.07
2022-11-04T17:59:36.742Z,87.97
2022-11-04T18:02:05.289Z,56.65
2022-11-04T18:04:35.402Z,100.63
2022-11-04T18:07:06.218Z,85.10
2022-11-04T18:09:36.314Z,121.85
2022-11-04T18:12:24.762Z,91.03
2022-11-04T18:14:54.179Z,91.82
2022-11-04T18:17:26.065Z,181.43
2022-11-04T18:19:55.569Z,104.35
2022-11-04T18:22:26.972Z,188.35
2022-11-04T18:24:58.105Z,93.38
2022-11-04T18:27:28.858Z,91.87
2022-11-04T18:29:58.554Z,91.57
2022-11-04T18:32:29.278Z,159.68
2022-11-04T18:34:58.748Z,89.85
2022-11-04T18:37:30.874Z,96.35
2022-11-04T18:40:00.400Z,126.75
2022-11-04T18:42:31.325Z,77.53
2022-11-04T18:44:59.901Z,181.32
2022-11-04T18:47:28.194Z,94.50
2022-11-04T18:49:57.748Z,105.35
2022-11-04T18:52:28.684Z,106.30
2022-11-04T18:54:57.305Z,83.72
2022-11-04T18:57:27.232Z,147.60
2022-11-04T18:59:56.702Z,88.68
2022-11-04T19:02:26.436Z,95.97
2022-11-04T19:04:56.119Z,94.05
2022-11-04T19:07:25.503Z,86.75
2022-11-04T19:09:55.040Z,104.10
2022-11-04T19:12:44.428Z,91.40
2022-11-04T19:15:15.026Z,90.97
2022-11-04T19:17:43.499Z,91.07
2022-11-04T19:20:14.713Z,91.10
2022-11-04T19:22:42.926Z,90.93
2022-11-04T19:25:12.452Z,86.15
2022-11-04T19:27:43.163Z,89.30
2022-11-04T19:30:14.180Z,87.30
2022-11-04T19:32:42.328Z,91.47
2022-11-04T19:35:13.041Z,87.45
2022-11-04T19:37:42.425Z,88.75
2022-11-04T19:40:12.932Z,86.82
2022-11-04T19:43:01.058Z,83.55
2022-11-04T19:45:31.656Z,87.97
2022-11-04T19:47:59.794Z,86.03
2022-11-04T19:50:29.539Z,88.78
2022-11-04T19:52:57.677Z,86.75
2022-11-04T19:55:27.419Z,85.60
2022-11-04T19:57:56.936Z,84.35
2022-11-04T20:00:25.546Z,124.40
2022-11-04T20:02:54.897Z,89.40
2022-11-04T20:05:23.264Z,91.65
2022-11-04T20:07:54.903Z,131.35
2022-11-04T20:10:25.868Z,86.63
2022-11-04T20:15:43.349Z,88.25
2022-11-04T20:18:12.834Z,84.38
2022-11-04T20:20:42.460Z,85.85
2022-11-04T20:23:11.818Z,84.47
2022-11-04T20:25:39.999Z,83.95
2022-11-04T20:28:09.796Z,85.38
2022-11-04T20:30:41.255Z,85.67
2022-11-04T20:33:10.932Z,92.97
2022-11-04T20:35:41.023Z,86.78
2022-11-04T20:38:10.143Z,85.38
2022-11-04T20:40:40.875Z,88.78
2022-11-04T20:43:10.467Z,84.90
2022-11-04T20:45:40.512Z,85.80
2022-11-04T20:48:10.414Z,85.47
2022-11-04T20:50:38.758Z,86.55
2022-11-04T20:53:06.863Z,86.07
2022-11-04T20:55:40.223Z,87.20
2022-11-04T21:00:39.951Z,95.82
2022-11-04T21:03:09.306Z,90.50
2022-11-04T21:05:38.636Z,93.85
2022-11-04T21:08:08.483Z,91.05
2022-11-04T21:10:38.989Z,89.28
2022-11-04T21:13:08.348Z,54.63
2022-11-04T21:15:43.903Z,116.22
2022-11-04T21:18:14.604Z,119.60
2022-11-04T21:20:44.707Z,89.97
2022-11-04T21:23:16.287Z,90.80
2022-11-04T21:25:49.088Z,91.28
2022-11-04T21:28:18.029Z,99.28
2022-11-04T21:30:51.638Z,107.95
2022-11-04T21:33:21.605Z,92.40
2022-11-04T21:35:51.588Z,111.13
2022-11-04T21:38:23.357Z,100.35
2022-11-04T21:40:51.632Z,82.95
2022-11-04T21:43:21.224Z,123.18
2022-11-04T21:45:49.736Z,136.68
2022-11-04T21:48:20.508Z,89.72
2022-11-04T21:50:50.054Z,101.00
2022-11-04T21:53:19.500Z,208.55
2022-11-04T21:55:50.216Z,100.63
2022-11-04T21:58:18.353Z,92.78
2022-11-04T22:00:55.863Z,99.35
2022-11-04T22:03:27.324Z,84.13
2022-11-04T22:06:02.774Z,128.25
2022-11-04T22:08:31.881Z,84.88
2022-11-04T22:11:10.153Z,110.55
2022-11-04T22:13:39.884Z,93.00
2022-11-04T22:16:14.594Z,105.32
2022-11-04T22:18:44.529Z,109.95
2022-11-04T22:21:19.094Z,91.35
2022-11-04T22:23:47.383Z,108.38
2022-11-04T22:26:19.924Z,91.40
2022-11-04T22:28:49.937Z,95.07
2022-11-04T22:31:21.409Z,93.68
2022-11-04T22:33:51.448Z,87.65
2022-11-04T22:36:21.649Z,195.55
2022-11-04T22:38:51.917Z,90.03
2022-11-04T22:41:25.707Z,89.72
2022-11-04T22:43:53.870Z,91.65
2022-11-04T22:46:26.132Z,92.07
2022-11-04T22:51:26.458Z,91.10
2022-11-04T22:54:01.410Z,90.90
2022-11-04T22:56:34.181Z,99.82
2022-11-04T22:59:02.710Z,89.78
2022-11-04T23:01:32.678Z,90.40
2022-11-04T23:04:02.594Z,89.72
2022-11-04T23:06:32.603Z,91.43
2022-11-04T23:09:01.320Z,89.05
2022-11-04T23:11:50.001Z,90.75
2022-11-04T23:14:47.783Z,89.57
2022-11-04T23:17:37.833Z,115.05
2022-11-04T23:20:12.156Z,84.47
2022-11-04T23:22:58.488Z,84.72
2022-11-04T23:25:27.951Z,85.30
2022-11-04T23:28:13.452Z,84.55
2022-11-04T23:30:44.319Z,85.47
2022-11-04T23:33:15.820Z,83.88
2022-11-04T23:36:07.468Z,85.97
2022-11-04T23:38:36.803Z,86.63
2022-11-04T23:41:25.604Z,83.95
2022-11-04T23:43:53.969Z,85.15
2022-11-04T23:46:43.500Z,84.80
2022-11-04T23:49:31.014Z,83.80
2022-11-04T23:52:18.123Z,82.65
2022-11-04T23:55:05.322Z,136.13
2022-11-04T23:57:52.481Z,129.07
